createdAt,value
2022-08-26T00:01:55.367Z,99.90
2022-08-26T00:04:25.424Z,99.90
2022-08-26T00:06:56.300Z,99.90
2022-08-26T00:09:24.787Z,99.90
2022-08-26T00:11:53.985Z,99.90
2022-08-26T00:14:21.228Z,99.90
2022-08-26T00:16:49.048Z,99.90
2022-08-26T00:19:18.602Z,99.90
2022-08-26T00:21:46.544Z,99.90
2022-08-26T00:24:16.313Z,99.90
2022-08-26T00:26:43.870Z,99.90
2022-08-26T00:29:12.412Z,99.90
2022-08-26T00:31:40.861Z,99.90
2022-08-26T00:34:09.519Z,99.90
2022-08-26T00:36:37.016Z,99.90
2022-08-26T00:39:04.488Z,99.90
2022-08-26T00:41:31.326Z,99.90
2022-08-26T00:43:58.381Z,99.90
2022-08-26T00:46:31.672Z,99.90
2022-08-26T00:49:12.204Z,99.90
2022-08-26T00:51:46.319Z,99.90
2022-08-26T00:54:15.234Z,99.90
2022-08-26T00:57:00.168Z,99.90
2022-08-26T00:59:29.014Z,99.90
2022-08-26T01:02:00.785Z,99.90
2022-08-26T01:04:31.389Z,99.90
2022-08-26T01:06:58.874Z,99.90
2022-08-26T01:09:26.259Z,99.90
2022-08-26T01:11:57.162Z,99.90
2022-08-26T01:14:26.263Z,99.90
2022-08-26T01:16:53.107Z,99.90
2022-08-26T01:19:28.782Z,99.90
2022-08-26T01:22:19.635Z,99.90
2022-08-26T01:24:48.395Z,99.90
2022-08-26T01:27:18.499Z,99.90
2022-08-26T01:29:48.868Z,99.90
2022-08-26T01:32:22.202Z,99.90
2022-08-26T01:34:50.603Z,99.90
2022-08-26T01:37:29.557Z,99.90
2022-08-26T01:39:57.315Z,99.90
2022-08-26T01:42:26.003Z,99.90
2022-08-26T01:44:59.902Z,99.90
2022-08-26T01:47:30.110Z,99.90
2022-08-26T01:49:59.829Z,99.90
2022-08-26T01:52:28.725Z,99.90
2022-08-26T01:54:57.438Z,99.90
2022-08-26T01:57:25.436Z,99.90
2022-08-26T01:59:54.732Z,99.90
2022-08-26T02:02:23.174Z,99.90
2022-08-26T02:04:57.477Z,99.90
2022-08-26T02:07:26.761Z,99.90
2022-08-26T02:09:54.657Z,99.90
2022-08-26T02:12:22.313Z,99.90
2022-08-26T02:14:53.835Z,99.90
2022-08-26T02:17:25.691Z,99.90
2022-08-26T02:19:53.119Z,99.90
2022-08-26T02:22:24.468Z,99.90
2022-08-26T02:24:51.672Z,99.90
2022-08-26T02:27:28.465Z,99.90
2022-08-26T02:30:14.787Z,99.90
2022-08-26T02:32:45.107Z,99.90
2022-08-26T02:35:13.721Z,99.90
2022-08-26T02:37:49.509Z,99.90
2022-08-26T02:40:21.756Z,99.90
2022-08-26T02:42:49.199Z,99.90
2022-08-26T02:45:16.755Z,99.90
2022-08-26T02:47:51.605Z,99.90
2022-08-26T02:50:19.572Z,99.90
2022-08-26T02:52:48.422Z,99.90
2022-08-26T02:55:16.087Z,99.90
2022-08-26T02:57:43.044Z,99.90
2022-08-26T03:00:14.583Z,99.90
2022-08-26T03:02:41.563Z,99.90
2022-08-26T03:05:08.977Z,99.90
2022-08-26T03:07:35.848Z,99.90
2022-08-26T03:10:08.167Z,99.90
2022-08-26T03:12:35.859Z,99.90
2022-08-26T03:15:03.353Z,99.90
2022-08-26T03:17:44.323Z,99.90
2022-08-26T03:20:11.544Z,99.90
2022-08-26T03:22:40.712Z,99.90
2022-08-26T03:25:10.533Z,99.90
2022-08-26T03:27:37.589Z,99.90
2022-08-26T03:30:24.670Z,99.90
2022-08-26T03:32:53.569Z,99.90
2022-08-26T03:35:22.417Z,99.90
2022-08-26T03:37:49.447Z,99.90
2022-08-26T03:40:16.590Z,99.90
2022-08-26T03:42:47.822Z,99.90
2022-08-26T03:45:17.269Z,99.90
2022-08-26T03:47:44.729Z,99.90
2022-08-26T03:50:15.089Z,99.90
2022-08-26T03:52:44.188Z,99.90
2022-08-26T03:55:12.314Z,99.90
2022-08-26T03:57:39.389Z,99.90
2022-08-26T04:00:10.171Z,99.90
2022-08-26T04:02:37.139Z,99.90
2022-08-26T04:05:04.722Z,99.90
2022-08-26T04:07:32.075Z,99.90
2022-08-26T04:10:00.047Z,99.90
2022-08-26T04:12:27.022Z,99.90
2022-08-26T04:14:54.242Z,99.90
2022-08-26T04:17:25.937Z,99.90
2022-08-26T04:19:54.003Z,99.90
2022-08-26T04:22:24.964Z,99.90
2022-08-26T04:24:52.315Z,99.90
2022-08-26T04:27:19.250Z,99.90
2022-08-26T04:29:47.950Z,99.90
2022-08-26T04:32:16.582Z,99.90
2022-08-26T04:34:44.862Z,99.90
2022-08-26T04:37:11.994Z,99.90
2022-08-26T04:39:38.892Z,99.90
2022-08-26T04:42:06.124Z,99.90
2022-08-26T04:44:36.149Z,99.90
2022-08-26T04:47:03.402Z,99.90
2022-08-26T04:49:35.365Z,99.90
2022-08-26T04:52:03.692Z,99.90
2022-08-26T04:54:31.685Z,99.90
2022-08-26T04:56:59.396Z,99.90
2022-08-26T04:59:26.289Z,99.90
2022-08-26T05:01:57.312Z,99.90
2022-08-26T05:04:24.215Z,99.90
2022-08-26T05:06:53.421Z,99.90
2022-08-26T05:09:22.780Z,99.90
2022-08-26T05:11:52.328Z,99.90
2022-08-26T05:14:23.425Z,99.90
2022-08-26T05:16:50.784Z,99.90
2022-08-26T05:19:19.198Z,99.90
2022-08-26T05:21:47.131Z,99.90
2022-08-26T05:24:14.866Z,99.90
2022-08-26T05:26:42.314Z,99.90
2022-08-26T05:29:12.197Z,99.90
2022-08-26T05:31:39.212Z,99.90
2022-08-26T05:34:06.123Z,99.90
2022-08-26T05:36:35.615Z,99.90
2022-08-26T05:39:06.205Z,99.90
2022-08-26T05:41:36.419Z,99.90
2022-08-26T05:44:07.937Z,99.90
2022-08-26T05:46:36.651Z,99.90
2022-08-26T05:49:05.087Z,99.90
2022-08-26T05:51:32.759Z,99.90
2022-08-26T05:54:03.555Z,99.90
2022-08-26T05:56:30.722Z,99.90
2022-08-26T05:58:58.580Z,99.90
2022-08-26T06:01:28.038Z,99.90
2022-08-26T06:03:59.662Z,99.90
2022-08-26T06:06:31.454Z,99.90
2022-08-26T06:09:00.465Z,99.90
2022-08-26T06:11:29.240Z,99.90
2022-08-26T06:14:03.537Z,99.90
2022-08-26T06:16:33.668Z,99.90
2022-08-26T06:19:03.013Z,99.90
2022-08-26T06:21:33.389Z,99.90
2022-08-26T06:24:27.137Z,99.90
2022-08-26T06:27:02.863Z,99.90
2022-08-26T06:29:31.005Z,99.90
2022-08-26T06:31:58.699Z,99.90
2022-08-26T06:34:30.319Z,99.90
2022-08-26T06:36:59.831Z,99.90
2022-08-26T06:39:30.777Z,99.90
2022-08-26T06:41:59.110Z,99.90
2022-08-26T06:44:26.924Z,99.90
2022-08-26T06:46:53.903Z,99.90
2022-08-26T06:49:26.880Z,99.90
2022-08-26T06:51:58.548Z,99.90
2022-08-26T06:54:26.765Z,99.90
2022-08-26T06:56:55.969Z,99.90
2022-08-26T06:59:23.133Z,99.90
2022-08-26T07:01:50.078Z,99.90
2022-08-26T07:04:20.273Z,99.90
2022-08-26T07:06:52.808Z,99.90
2022-08-26T07:09:21.876Z,99.90
2022-08-26T07:11:49.421Z,99.90
2022-08-26T07:14:21.140Z,99.90
2022-08-26T07:16:49.908Z,99.90
2022-08-26T07:19:30.368Z,99.90
2022-08-26T07:22:04.169Z,99.90
2022-08-26T07:24:33.741Z,99.90
2022-08-26T07:27:05.445Z,99.90
2022-08-26T07:29:33.433Z,99.90
2022-08-26T07:32:01.689Z,99.90
2022-08-26T07:34:28.813Z,99.90
2022-08-26T07:36:57.140Z,99.90
2022-08-26T07:39:26.447Z,99.90
2022-08-26T07:41:54.102Z,99.90
2022-08-26T07:44:21.147Z,99.90
2022-08-26T07:46:53.285Z,99.90
2022-08-26T07:49:21.905Z,99.90
2022-08-26T07:51:49.871Z,99.90
2022-08-26T07:54:17.024Z,99.90
2022-08-26T07:56:44.700Z,99.90
2022-08-26T07:59:13.843Z,99.90
2022-08-26T08:01:45.021Z,99.90
2022-08-26T08:04:14.068Z,99.90
2022-08-26T08:06:41.065Z,99.90
2022-08-26T08:09:12.078Z,99.90
2022-08-26T08:11:38.997Z,99.90
2022-08-26T08:14:08.560Z,99.90
2022-08-26T08:16:41.544Z,99.90
2022-08-26T08:19:13.536Z,99.90
2022-08-26T08:21:41.712Z,99.90
2022-08-26T08:24:08.914Z,99.90
2022-08-26T08:26:35.858Z,99.90
2022-08-26T08:29:03.153Z,99.90
2022-08-26T08:31:55.905Z,99.90
2022-08-26T08:34:19.347Z,99.90
2022-08-26T08:36:48.867Z,99.90
2022-08-26T08:39:19.224Z,99.90
2022-08-26T08:42:00.881Z,99.90
2022-08-26T08:44:29.745Z,99.90
2022-08-26T08:47:19.305Z,99.90
2022-08-26T08:49:47.877Z,99.90
2022-08-26T08:52:29.792Z,99.90
2022-08-26T08:54:57.276Z,99.90
2022-08-26T08:57:39.334Z,99.90
2022-08-26T09:00:12.283Z,99.90
2022-08-26T09:02:42.009Z,99.90
2022-08-26T09:05:21.377Z,99.90
2022-08-26T09:07:52.195Z,99.90
2022-08-26T09:10:46.315Z,99.90
2022-08-26T09:13:19.585Z,99.90
2022-08-26T09:16:07.609Z,99.90
2022-08-26T09:18:56.312Z,99.90
2022-08-26T09:21:25.261Z,99.90
2022-08-26T09:23:56.701Z,99.90
2022-08-26T09:26:43.837Z,99.90
2022-08-26T09:29:27.441Z,99.90
2022-08-26T09:32:20.282Z,99.90
2022-08-26T09:35:01.316Z,99.90
2022-08-26T09:40:35.861Z,99.90
2022-08-26T09:43:29.320Z,99.90
2022-08-26T09:46:10.876Z,99.90
2022-08-26T09:48:40.992Z,99.90
2022-08-26T09:51:35.391Z,99.90
2022-08-26T09:54:05.684Z,99.90
2022-08-26T09:56:38.728Z,99.90
2022-08-26T09:59:11.136Z,99.90
2022-08-26T10:01:43.032Z,99.90
2022-08-26T10:04:10.428Z,99.90
2022-08-26T10:07:05.578Z,99.90
2022-08-26T10:09:43.459Z,99.90
2022-08-26T10:12:17.732Z,99.90
2022-08-26T10:14:54.006Z,99.90
2022-08-26T10:17:39.839Z,99.90
2022-08-26T10:20:22.596Z,99.90
2022-08-26T10:23:05.190Z,99.90
2022-08-26T10:25:42.260Z,99.90
2022-08-26T10:28:21.040Z,99.90
2022-08-26T10:30:59.693Z,99.90
2022-08-26T10:33:26.610Z,99.90
2022-08-26T10:35:57.731Z,99.80
2022-08-26T10:38:39.774Z,99.90
2022-08-26T10:41:10.610Z,99.90
2022-08-26T10:44:00.343Z,99.90
2022-08-26T10:46:39.788Z,99.80
2022-08-26T10:49:14.036Z,98.60
2022-08-26T10:52:12.464Z,99.90
2022-08-26T10:54:52.198Z,98.70
2022-08-26T10:57:59.380Z,98.20
2022-08-26T11:01:10.111Z,98.70
2022-08-26T11:04:05.960Z,98.90
2022-08-26T11:06:33.180Z,99.10
2022-08-26T11:09:07.417Z,98.90
2022-08-26T11:11:40.091Z,98.60
2022-08-26T11:14:34.045Z,97.00
2022-08-26T11:17:11.825Z,97.50
2022-08-26T11:19:59.684Z,98.30
2022-08-26T11:22:26.972Z,97.50
2022-08-26T11:24:56.857Z,96.30
2022-08-26T11:27:24.360Z,97.60
2022-08-26T11:30:12.578Z,97.00
2022-08-26T11:32:40.384Z,96.20
2022-08-26T11:35:37.555Z,95.90
2022-08-26T11:38:15.932Z,97.30
2022-08-26T11:40:43.088Z,97.20
2022-08-26T11:43:18.936Z,95.90
2022-08-26T11:46:05.685Z,96.80
2022-08-26T11:48:37.849Z,97.60
2022-08-26T11:51:21.960Z,97.60
2022-08-26T11:53:49.275Z,97.40
2022-08-26T11:56:36.753Z,96.20
2022-08-26T11:59:11.083Z,95.60
2022-08-26T12:01:44.737Z,95.70
2022-08-26T12:04:30.119Z,95.30
2022-08-26T12:07:00.788Z,94.40
2022-08-26T12:09:34.596Z,94.50
2022-08-26T12:12:12.186Z,93.90
2022-08-26T12:14:39.777Z,94.40
2022-08-26T12:17:26.754Z,93.60
2022-08-26T12:19:53.637Z,94.70
2022-08-26T12:22:24.612Z,95.30
2022-08-26T12:25:00.806Z,94.80
2022-08-26T12:27:34.452Z,93.30
2022-08-26T12:30:16.644Z,93.50
2022-08-26T12:32:52.850Z,94.30
2022-08-26T12:35:26.097Z,93.90
2022-08-26T12:37:54.979Z,93.20
2022-08-26T12:40:31.029Z,94.60
2022-08-26T12:43:00.558Z,96.50
2022-08-26T12:45:36.236Z,94.50
2022-08-26T12:48:08.468Z,93.60
2022-08-26T12:50:37.811Z,94.80
2022-08-26T12:53:10.916Z,94.90
2022-08-26T12:55:50.657Z,93.40
2022-08-26T12:58:23.636Z,93.30
2022-08-26T13:01:06.576Z,94.20
2022-08-26T13:03:45.619Z,94.70
2022-08-26T13:06:24.220Z,94.40
2022-08-26T13:09:06.118Z,93.70
2022-08-26T13:11:38.939Z,93.90
2022-08-26T13:14:11.395Z,94.60
2022-08-26T13:16:39.669Z,94.00
2022-08-26T13:19:10.248Z,94.40
2022-08-26T13:21:58.650Z,94.00
2022-08-26T13:24:33.904Z,93.60
2022-08-26T13:27:01.163Z,92.90
2022-08-26T13:29:28.082Z,93.30
2022-08-26T13:31:56.052Z,93.90
2022-08-26T13:34:24.834Z,93.50
2022-08-26T13:36:54.754Z,94.80
2022-08-26T13:39:23.018Z,94.00
2022-08-26T13:41:50.019Z,93.80
2022-08-26T13:44:17.539Z,93.50
2022-08-26T13:49:12.710Z,95.80
2022-08-26T13:51:40.129Z,95.00
2022-08-26T13:54:07.034Z,95.80
2022-08-26T13:56:35.420Z,95.80
2022-08-26T13:59:03.088Z,96.10
2022-08-26T14:01:31.489Z,96.10
2022-08-26T14:03:59.451Z,95.40
2022-08-26T14:06:26.506Z,93.70
2022-08-26T14:08:53.454Z,93.40
2022-08-26T14:11:21.526Z,93.80
2022-08-26T14:13:48.675Z,93.40
2022-08-26T14:16:33.376Z,92.80
2022-08-26T14:19:02.075Z,92.90
2022-08-26T14:21:31.484Z,93.30
2022-08-26T14:24:00.936Z,93.20
2022-08-26T14:26:29.831Z,93.20
2022-08-26T14:29:00.841Z,93.10
2022-08-26T14:31:29.902Z,92.00
2022-08-26T14:34:03.437Z,91.80
2022-08-26T14:36:33.328Z,92.20
2022-08-26T14:39:04.116Z,92.50
2022-08-26T14:41:32.363Z,92.30
2022-08-26T14:44:06.446Z,92.20
2022-08-26T14:46:39.924Z,92.50
2022-08-26T14:49:10.364Z,91.90
2022-08-26T14:51:38.153Z,91.80
2022-08-26T14:54:14.292Z,92.40
2022-08-26T14:56:54.156Z,92.40
2022-08-26T14:59:28.276Z,92.10
2022-08-26T15:01:56.552Z,92.80
2022-08-26T15:04:25.304Z,92.50
2022-08-26T15:06:54.230Z,93.50
2022-08-26T15:09:21.534Z,93.00
2022-08-26T15:11:48.629Z,93.40
2022-08-26T15:14:19.433Z,94.40
2022-08-26T15:16:50.553Z,93.90
2022-08-26T15:19:18.302Z,92.70
2022-08-26T15:21:47.316Z,94.20
2022-08-26T15:24:17.428Z,93.50
2022-08-26T15:26:44.645Z,93.30
2022-08-26T15:29:12.122Z,94.00
2022-08-26T15:31:39.223Z,96.20
2022-08-26T15:34:14.539Z,93.10
2022-08-26T15:36:44.993Z,92.70
2022-08-26T15:39:12.255Z,91.90
2022-08-26T15:41:39.588Z,92.50
2022-08-26T15:44:08.162Z,92.30
2022-08-26T15:46:35.606Z,93.40
2022-08-26T15:49:04.601Z,93.10
2022-08-26T15:51:45.421Z,91.80
2022-08-26T15:54:14.004Z,92.10
2022-08-26T15:56:40.950Z,93.70
2022-08-26T15:59:11.502Z,92.90
2022-08-26T16:01:39.149Z,92.30
2022-08-26T16:04:06.598Z,92.00
2022-08-26T16:06:36.573Z,90.10
2022-08-26T16:09:03.551Z,90.70
2022-08-26T16:11:31.368Z,90.70
2022-08-26T16:13:58.474Z,91.50
2022-08-26T16:16:25.973Z,91.40
2022-08-26T16:18:53.297Z,90.50
2022-08-26T16:21:25.707Z,90.90
2022-08-26T16:23:52.598Z,90.20
2022-08-26T16:26:25.937Z,90.70
2022-08-26T16:28:53.805Z,91.00
2022-08-26T16:31:21.746Z,90.60
2022-08-26T16:33:48.959Z,90.30
2022-08-26T16:36:16.649Z,90.50
2022-08-26T16:38:50.142Z,90.60
2022-08-26T16:41:17.842Z,90.60
2022-08-26T16:43:45.049Z,90.80
2022-08-26T16:46:14.288Z,90.60
2022-08-26T16:48:41.379Z,90.00
2022-08-26T16:51:17.422Z,88.70
2022-08-26T16:53:45.789Z,90.20
2022-08-26T16:56:14.886Z,90.40
2022-08-26T16:58:42.078Z,90.30
2022-08-26T17:01:09.619Z,88.70
2022-08-26T17:03:36.987Z,91.20
2022-08-26T17:06:03.908Z,91.60
2022-08-26T17:08:30.852Z,91.20
2022-08-26T17:11:00.622Z,90.10
2022-08-26T17:13:35.297Z,88.60
2022-08-26T17:16:05.125Z,89.60
2022-08-26T17:18:32.967Z,90.20
2022-08-26T17:21:09.496Z,90.00
2022-08-26T17:23:37.662Z,89.70
2022-08-26T17:26:05.124Z,90.30
2022-08-26T17:28:32.387Z,90.10
2022-08-26T17:30:59.837Z,90.50
2022-08-26T17:33:27.127Z,90.20
2022-08-26T17:35:54.131Z,90.90
2022-08-26T17:38:21.583Z,90.20
2022-08-26T17:40:49.675Z,90.20
2022-08-26T17:43:17.367Z,88.30
2022-08-26T17:45:44.347Z,90.00
2022-08-26T17:48:12.058Z,89.50
2022-08-26T17:50:41.333Z,90.20
2022-08-26T17:53:08.599Z,89.30
2022-08-26T17:55:41.892Z,90.50
2022-08-26T17:58:12.140Z,89.60
2022-08-26T18:00:44.991Z,88.30
2022-08-26T18:03:12.140Z,89.70
2022-08-26T18:05:39.516Z,87.50
2022-08-26T18:08:06.561Z,87.70
2022-08-26T18:10:33.512Z,86.70
2022-08-26T18:13:00.470Z,89.10
2022-08-26T18:15:27.772Z,85.80
2022-08-26T18:17:54.587Z,85.40
2022-08-26T18:20:21.601Z,86.70
2022-08-26T18:22:48.722Z,86.70
2022-08-26T18:25:17.412Z,87.10
2022-08-26T18:27:44.327Z,85.50
2022-08-26T18:30:16.714Z,86.60
2022-08-26T18:32:44.005Z,86.20
2022-08-26T18:35:11.995Z,87.20
2022-08-26T18:37:39.222Z,85.90
2022-08-26T18:40:07.980Z,86.20
2022-08-26T18:42:35.389Z,86.10
2022-08-26T18:45:02.775Z,87.20
2022-08-26T18:47:30.877Z,86.10
2022-08-26T18:49:57.772Z,85.70
2022-08-26T18:52:24.788Z,87.50
2022-08-26T18:54:51.677Z,86.60
2022-08-26T18:57:18.570Z,87.30
2022-08-26T18:59:45.513Z,85.30
2022-08-26T19:02:12.653Z,86.80
2022-08-26T19:04:39.591Z,86.60
2022-08-26T19:07:07.098Z,85.00
2022-08-26T19:09:34.807Z,86.10
2022-08-26T19:12:04.291Z,86.40
2022-08-26T19:14:32.608Z,87.30
2022-08-26T19:17:00.532Z,86.70
2022-08-26T19:19:27.531Z,86.30
2022-08-26T19:21:55.468Z,87.70
2022-08-26T19:24:28.174Z,86.20
2022-08-26T19:26:58.404Z,85.80
2022-08-26T19:29:31.794Z,86.90
2022-08-26T19:31:59.219Z,87.60
2022-08-26T19:34:26.594Z,87.20
2022-08-26T19:36:54.207Z,88.30
2022-08-26T19:39:21.633Z,88.60
2022-08-26T19:41:49.150Z,87.90
2022-08-26T19:44:38.054Z,88.70
2022-08-26T19:47:06.625Z,89.20
2022-08-26T19:49:34.876Z,89.10
2022-08-26T19:52:03.267Z,90.00
2022-08-26T19:54:30.373Z,90.60
2022-08-26T19:56:57.497Z,89.90
2022-08-26T19:59:24.470Z,89.70
2022-08-26T20:02:01.178Z,91.30
2022-08-26T20:04:30.182Z,90.20
2022-08-26T20:07:00.345Z,90.70
2022-08-26T20:09:30.011Z,91.40
2022-08-26T20:11:57.165Z,90.90
2022-08-26T20:14:25.353Z,90.50
2022-08-26T20:16:52.354Z,91.30
2022-08-26T20:19:37.869Z,90.90
2022-08-26T20:22:05.447Z,90.90
2022-08-26T20:24:32.824Z,91.00
2022-08-26T20:27:01.535Z,91.00
2022-08-26T20:29:32.381Z,91.80
2022-08-26T20:31:59.426Z,90.90
2022-08-26T20:34:27.212Z,91.00
2022-08-26T20:36:54.138Z,91.30
2022-08-26T20:39:22.610Z,91.30
2022-08-26T20:41:49.933Z,91.80
2022-08-26T20:44:17.747Z,91.60
2022-08-26T20:46:45.347Z,91.40
2022-08-26T20:49:13.450Z,91.70
2022-08-26T20:51:42.888Z,91.60
2022-08-26T20:54:12.107Z,91.60
2022-08-26T20:56:39.671Z,92.40
2022-08-26T20:59:07.885Z,92.70
2022-08-26T21:01:36.507Z,92.20
2022-08-26T21:04:10.282Z,92.20
2022-08-26T21:06:38.401Z,92.10
2022-08-26T21:09:08.087Z,92.20
2022-08-26T21:11:37.622Z,92.50
2022-08-26T21:14:15.791Z,92.40
2022-08-26T21:16:44.092Z,92.80
2022-08-26T21:19:13.912Z,92.60
2022-08-26T21:21:41.550Z,92.40
2022-08-26T21:24:09.341Z,92.40
2022-08-26T21:26:36.463Z,92.50
2022-08-26T21:29:04.124Z,92.60
2022-08-26T21:31:32.226Z,93.00
2022-08-26T21:33:59.722Z,92.70
2022-08-26T21:36:26.804Z,92.90
2022-08-26T21:38:56.961Z,93.00
2022-08-26T21:41:25.094Z,93.00
2022-08-26T21:43:55.623Z,93.00
2022-08-26T21:46:25.236Z,93.30
2022-08-26T21:49:03.514Z,93.30
2022-08-26T21:51:33.761Z,93.30
2022-08-26T21:54:02.333Z,93.30
2022-08-26T21:56:31.738Z,93.30
2022-08-26T21:59:00.161Z,93.70
2022-08-26T22:01:31.952Z,93.80
2022-08-26T22:03:59.105Z,93.60
2022-08-26T22:06:28.460Z,93.80
2022-08-26T22:08:56.441Z,93.70
2022-08-26T22:11:24.630Z,93.80
2022-08-26T22:13:52.379Z,94.00
2022-08-26T22:16:19.738Z,93.60
2022-08-26T22:18:47.005Z,93.80
2022-08-26T22:21:17.591Z,93.90
2022-08-26T22:23:45.372Z,94.00
2022-08-26T22:26:14.607Z,93.80
2022-08-26T22:28:41.556Z,94.20
2022-08-26T22:31:11.443Z,94.00
2022-08-26T22:33:40.422Z,94.10
2022-08-26T22:36:07.766Z,94.10
2022-08-26T22:38:35.019Z,94.30
2022-08-26T22:41:05.398Z,94.60
2022-08-26T22:43:34.777Z,94.30
2022-08-26T22:46:02.055Z,94.30
2022-08-26T22:48:29.055Z,94.40
2022-08-26T22:51:00.279Z,94.50
2022-08-26T22:53:27.804Z,94.50
2022-08-26T22:55:54.879Z,94.40
2022-08-26T22:58:30.254Z,94.80
2022-08-26T23:00:59.443Z,94.50
2022-08-26T23:03:26.968Z,94.90
2022-08-26T23:05:55.494Z,94.60
2022-08-26T23:08:24.806Z,95.00
2022-08-26T23:10:52.636Z,94.60
2022-08-26T23:13:20.269Z,95.20
2022-08-26T23:15:47.190Z,94.90
2022-08-26T23:18:16.251Z,94.60
2022-08-26T23:20:43.251Z,94.90
2022-08-26T23:23:10.129Z,94.90
2022-08-26T23:25:37.181Z,95.40
2022-08-26T23:28:04.510Z,94.80
2022-08-26T23:30:32.942Z,94.90
2022-08-26T23:33:00.216Z,95.10
2022-08-26T23:35:27.516Z,94.90
2022-08-26T23:37:54.948Z,94.70
2022-08-26T23:40:29.017Z,94.70
2022-08-26T23:42:58.767Z,94.80
2022-08-26T23:45:26.882Z,94.90
2022-08-26T23:47:54.676Z,95.00
2022-08-26T23:50:44.109Z,95.10
2022-08-26T23:53:11.644Z,95.00
2022-08-26T23:55:39.461Z,95.00
2022-08-26T23:58:07.008Z,95.10
